createdAt,value
2023-05-17T00:01:44.236Z,9.90
2023-05-17T00:04:11.699Z,9.90
2023-05-17T00:06:39.330Z,10.00
2023-05-17T00:09:09.406Z,10.00
2023-05-17T00:11:37.158Z,10.10
2023-05-17T00:14:04.744Z,10.10
2023-05-17T00:16:32.348Z,10.10
2023-05-17T00:18:59.936Z,10.10
2023-05-17T00:21:27.546Z,10.10
2023-05-17T00:23:55.087Z,10.10
2023-05-17T00:26:22.706Z,10.10
2023-05-17T00:28:50.229Z,10.10
2023-05-17T00:31:17.849Z,10.20
2023-05-17T00:33:46.792Z,10.20
2023-05-17T00:36:14.344Z,10.20
2023-05-17T00:38:41.929Z,10.30
2023-05-17T00:41:09.458Z,10.30
2023-05-17T00:43:37.015Z,10.30
2023-05-17T00:46:04.512Z,10.30
2023-05-17T00:48:32.076Z,10.30
2023-05-17T00:50:59.866Z,10.30
2023-05-17T00:53:29.088Z,10.30
2023-05-17T00:55:56.742Z,10.40
2023-05-17T00:58:24.821Z,10.40
2023-05-17T01:00:55.201Z,10.40
2023-05-17T01:03:23.009Z,10.40
2023-05-17T01:05:51.874Z,10.40
2023-05-17T01:08:22.134Z,10.50
2023-05-17T01:10:52.617Z,10.50
2023-05-17T01:13:28.184Z,10.60
2023-05-17T01:16:11.300Z,10.50
2023-05-17T01:18:45.026Z,10.50
2023-05-17T01:21:53.481Z,10.50
2023-05-17T01:24:26.823Z,10.50
2023-05-17T01:26:55.925Z,10.50
2023-05-17T01:29:28.635Z,10.50
2023-05-17T01:31:58.006Z,10.50
2023-05-17T01:34:29.799Z,10.50
2023-05-17T01:36:58.432Z,10.50
2023-05-17T01:39:26.318Z,10.50
2023-05-17T01:42:14.115Z,10.50
2023-05-17T01:44:51.282Z,10.50
2023-05-17T01:47:45.749Z,10.50
2023-05-17T01:50:16.828Z,10.40
2023-05-17T01:53:29.587Z,10.40
2023-05-17T01:56:02.318Z,10.40
2023-05-17T01:58:31.593Z,10.30
2023-05-17T02:01:02.232Z,10.30
2023-05-17T02:03:30.240Z,10.30
2023-05-17T02:05:57.742Z,10.30
2023-05-17T02:08:25.256Z,10.30
2023-05-17T02:10:52.874Z,10.30
2023-05-17T02:13:20.397Z,10.40
2023-05-17T02:15:48.065Z,10.40
2023-05-17T02:18:15.796Z,10.40
2023-05-17T02:20:43.392Z,10.40
2023-05-17T02:23:10.976Z,10.40
2023-05-17T02:25:38.530Z,10.50
2023-05-17T02:28:06.115Z,10.50
2023-05-17T02:30:33.578Z,10.50
2023-05-17T02:33:01.103Z,10.50
2023-05-17T02:35:29.008Z,10.60
2023-05-17T02:37:56.770Z,10.50
2023-05-17T02:40:24.141Z,10.50
2023-05-17T02:42:51.889Z,10.50
2023-05-17T02:45:19.325Z,10.50
2023-05-17T02:47:46.962Z,10.50
2023-05-17T02:50:14.501Z,10.60
2023-05-17T02:52:41.948Z,10.60
2023-05-17T02:55:09.927Z,10.60
2023-05-17T02:57:37.562Z,10.50
2023-05-17T03:00:07.012Z,10.60
2023-05-17T03:02:34.688Z,10.50
2023-05-17T03:05:02.396Z,10.50
2023-05-17T03:07:30.017Z,10.50
2023-05-17T03:09:57.684Z,10.50
2023-05-17T03:12:26.099Z,10.50
2023-05-17T03:14:54.851Z,10.60
2023-05-17T03:17:22.405Z,10.60
2023-05-17T03:19:50.521Z,10.70
2023-05-17T03:22:20.367Z,10.70
2023-05-17T03:24:52.133Z,10.70
2023-05-17T03:27:19.650Z,10.70
2023-05-17T03:29:47.360Z,10.80
2023-05-17T03:32:14.923Z,10.80
2023-05-17T03:34:42.558Z,10.90
2023-05-17T03:37:10.044Z,10.90
2023-05-17T03:39:38.505Z,10.80
2023-05-17T03:42:09.695Z,10.90
2023-05-17T03:44:37.272Z,10.90
2023-05-17T03:47:05.099Z,11.00
2023-05-17T03:49:32.729Z,11.00
2023-05-17T03:52:00.253Z,11.00
2023-05-17T03:54:27.938Z,11.30
2023-05-17T03:56:55.524Z,11.40
2023-05-17T03:59:22.950Z,11.50
2023-05-17T04:01:50.555Z,11.30
2023-05-17T04:04:18.114Z,11.50
2023-05-17T04:06:45.699Z,11.50
2023-05-17T04:09:15.546Z,11.70
2023-05-17T04:11:43.735Z,11.80
2023-05-17T04:14:11.398Z,11.70
2023-05-17T04:16:38.919Z,11.50
2023-05-17T04:19:06.752Z,11.50
2023-05-17T04:21:34.353Z,11.60
2023-05-17T04:24:02.193Z,11.60
2023-05-17T04:26:29.667Z,11.70
2023-05-17T04:28:57.118Z,11.80
2023-05-17T04:31:25.041Z,12.10
2023-05-17T04:33:52.664Z,12.70
2023-05-17T04:36:20.253Z,13.10
2023-05-17T04:38:47.920Z,13.10
2023-05-17T04:41:16.413Z,13.10
2023-05-17T04:43:43.949Z,13.20
2023-05-17T04:46:11.805Z,12.90
2023-05-17T04:48:39.514Z,12.90
2023-05-17T04:51:07.780Z,12.70
2023-05-17T04:53:35.725Z,12.60
2023-05-17T04:56:04.395Z,12.50
2023-05-17T04:58:32.255Z,12.70
2023-05-17T05:00:59.704Z,12.60
2023-05-17T05:03:27.183Z,12.50
2023-05-17T05:05:57.073Z,12.50
2023-05-17T05:08:24.554Z,12.50
2023-05-17T05:10:52.209Z,12.30
2023-05-17T05:13:19.793Z,12.40
2023-05-17T05:15:47.876Z,12.60
2023-05-17T05:18:15.588Z,12.70
2023-05-17T05:20:44.300Z,12.70
2023-05-17T05:23:11.852Z,12.70
2023-05-17T05:25:39.294Z,12.70
2023-05-17T05:28:10.025Z,12.70
2023-05-17T05:30:37.625Z,12.50
2023-05-17T05:33:05.731Z,12.30
2023-05-17T05:35:34.104Z,12.40
2023-05-17T05:38:02.023Z,12.30
2023-05-17T05:40:29.929Z,12.20
2023-05-17T05:43:00.772Z,12.40
2023-05-17T05:45:28.384Z,12.70
2023-05-17T05:47:56.199Z,13.60
2023-05-17T05:50:23.764Z,14.40
2023-05-17T05:52:56.297Z,15.00
2023-05-17T05:55:34.380Z,15.80
2023-05-17T05:58:03.576Z,15.40
2023-05-17T06:00:31.412Z,15.00
2023-05-17T06:03:00.617Z,14.60
2023-05-17T06:05:28.789Z,14.40
2023-05-17T06:07:58.540Z,14.10
2023-05-17T06:10:26.445Z,13.40
2023-05-17T06:12:53.971Z,13.10
2023-05-17T06:15:21.421Z,12.80
2023-05-17T06:17:49.158Z,12.50
2023-05-17T06:20:17.662Z,12.40
2023-05-17T06:22:45.406Z,12.40
2023-05-17T06:25:13.015Z,12.20
2023-05-17T06:27:40.818Z,12.30
2023-05-17T06:30:09.288Z,12.00
2023-05-17T06:32:37.146Z,11.70
2023-05-17T06:35:05.017Z,11.60
2023-05-17T06:37:32.869Z,11.50
2023-05-17T06:40:15.540Z,11.40
2023-05-17T06:42:44.724Z,11.40
2023-05-17T06:45:12.834Z,11.20
2023-05-17T06:47:41.105Z,11.10
2023-05-17T06:50:09.611Z,11.00
2023-05-17T06:52:37.343Z,11.20
2023-05-17T06:55:05.039Z,11.10
2023-05-17T06:57:32.918Z,11.00
2023-05-17T07:00:01.434Z,11.20
2023-05-17T07:02:33.095Z,11.40
2023-05-17T07:05:02.333Z,11.60
2023-05-17T07:07:30.033Z,11.90
2023-05-17T07:09:57.651Z,12.20
2023-05-17T07:12:25.163Z,12.70
2023-05-17T07:14:52.834Z,12.80
2023-05-17T07:17:20.622Z,13.30
2023-05-17T07:19:51.219Z,13.20
2023-05-17T07:22:19.321Z,13.10
2023-05-17T07:24:47.151Z,13.30
2023-05-17T07:27:14.777Z,13.60
2023-05-17T07:29:42.952Z,13.60
2023-05-17T07:32:10.655Z,13.40
2023-05-17T07:34:38.294Z,13.00
2023-05-17T07:37:06.101Z,12.80
2023-05-17T07:39:33.657Z,12.50
2023-05-17T07:42:02.786Z,12.10
2023-05-17T07:44:31.269Z,11.70
2023-05-17T07:46:58.794Z,11.20
2023-05-17T07:49:28.393Z,10.40
2023-05-17T07:51:57.961Z,10.30
2023-05-17T07:54:28.889Z,9.90
2023-05-17T07:56:56.698Z,9.80
2023-05-17T07:59:24.350Z,9.90
2023-05-17T08:01:52.385Z,9.60
2023-05-17T08:04:20.040Z,9.30
2023-05-17T08:06:48.743Z,9.60
2023-05-17T08:09:17.147Z,9.60
2023-05-17T08:11:46.306Z,9.60
2023-05-17T08:14:17.749Z,9.30
2023-05-17T08:16:48.148Z,9.50
2023-05-17T08:19:16.926Z,9.60
2023-05-17T08:21:46.386Z,9.60
2023-05-17T08:24:14.215Z,9.00
2023-05-17T08:26:42.033Z,9.00
2023-05-17T08:29:09.545Z,9.00
2023-05-17T08:31:47.246Z,9.10
2023-05-17T08:34:14.928Z,9.20
2023-05-17T08:36:43.057Z,9.20
2023-05-17T08:39:11.144Z,8.80
2023-05-17T08:41:39.284Z,8.90
2023-05-17T08:44:07.762Z,9.20
2023-05-17T08:46:37.285Z,9.00
2023-05-17T08:49:08.285Z,8.70
2023-05-17T08:51:36.832Z,8.80
2023-05-17T08:54:08.595Z,8.80
2023-05-17T08:56:38.661Z,8.90
2023-05-17T08:59:09.775Z,8.80
2023-05-17T09:01:40.173Z,8.60
2023-05-17T09:04:12.741Z,8.70
2023-05-17T09:06:40.637Z,8.70
2023-05-17T09:09:08.421Z,8.60
2023-05-17T09:11:36.018Z,8.60
2023-05-17T09:14:05.894Z,8.40
2023-05-17T09:16:37.832Z,8.30
2023-05-17T09:19:08.845Z,8.40
2023-05-17T09:21:37.393Z,8.50
2023-05-17T09:24:08.376Z,8.30
2023-05-17T09:26:46.212Z,8.30
2023-05-17T09:29:15.741Z,8.40
2023-05-17T09:31:44.519Z,8.50
2023-05-17T09:34:12.707Z,8.70
2023-05-17T09:36:47.106Z,8.90
2023-05-17T09:39:15.901Z,9.20
2023-05-17T09:41:47.200Z,8.80
2023-05-17T09:44:15.923Z,8.60
2023-05-17T09:46:47.697Z,8.50
2023-05-17T09:49:16.750Z,8.20
2023-05-17T09:51:46.059Z,8.10
2023-05-17T09:54:14.245Z,8.30
2023-05-17T09:56:42.183Z,8.10
2023-05-17T09:59:17.114Z,7.70
2023-05-17T10:01:45.980Z,7.90
2023-05-17T10:04:14.235Z,7.70
2023-05-17T10:06:50.642Z,7.80
2023-05-17T10:09:23.232Z,7.80
2023-05-17T10:11:56.763Z,7.60
2023-05-17T10:14:32.251Z,7.80
2023-05-17T10:17:02.086Z,8.00
2023-05-17T10:19:30.182Z,8.10
2023-05-17T10:22:08.360Z,8.10
2023-05-17T10:24:46.973Z,7.90
2023-05-17T10:27:15.080Z,7.80
2023-05-17T10:29:43.890Z,7.60
2023-05-17T10:32:14.654Z,7.50
2023-05-17T10:34:42.228Z,7.50
2023-05-17T10:37:11.533Z,7.40
2023-05-17T10:39:39.201Z,7.40
2023-05-17T10:42:14.863Z,7.40
2023-05-17T10:44:43.977Z,7.50
2023-05-17T10:47:12.698Z,7.40
2023-05-17T10:49:41.792Z,7.50
2023-05-17T10:52:27.818Z,7.40
2023-05-17T10:55:00.849Z,7.30
2023-05-17T10:57:46.804Z,7.40
2023-05-17T11:00:22.298Z,7.40
2023-05-17T11:02:52.466Z,7.20
2023-05-17T11:05:30.117Z,7.20
2023-05-17T11:08:17.782Z,7.10
2023-05-17T11:11:10.772Z,7.10
2023-05-17T11:13:59.309Z,7.20
2023-05-17T11:16:34.523Z,7.20
2023-05-17T11:19:12.453Z,7.30
2023-05-17T11:21:48.911Z,7.40
2023-05-17T11:24:27.434Z,7.50
2023-05-17T11:26:56.447Z,7.20
2023-05-17T11:29:31.229Z,7.10
2023-05-17T11:32:07.621Z,7.20
2023-05-17T11:34:35.451Z,6.90
2023-05-17T11:37:05.021Z,6.80
2023-05-17T11:39:32.802Z,6.80
2023-05-17T11:42:00.459Z,6.80
2023-05-17T11:44:32.927Z,6.60
2023-05-17T11:47:10.014Z,6.60
2023-05-17T11:49:39.197Z,6.60
2023-05-17T11:52:07.577Z,6.60
2023-05-17T11:54:35.546Z,6.70
2023-05-17T11:57:04.210Z,6.90
2023-05-17T11:59:43.545Z,7.00
2023-05-17T12:02:11.678Z,6.90
2023-05-17T12:04:40.019Z,6.90
2023-05-17T12:07:11.197Z,7.00
2023-05-17T12:09:40.792Z,7.00
2023-05-17T12:12:08.930Z,6.70
2023-05-17T12:14:36.699Z,6.50
2023-05-17T12:17:08.189Z,6.40
2023-05-17T12:19:38.838Z,6.40
2023-05-17T12:22:14.230Z,6.20
2023-05-17T12:24:45.746Z,6.20
2023-05-17T12:27:13.249Z,6.20
2023-05-17T12:29:40.872Z,6.30
2023-05-17T12:32:10.221Z,6.40
2023-05-17T12:34:38.049Z,6.40
2023-05-17T12:37:10.922Z,6.40
2023-05-17T12:39:39.288Z,6.50
2023-05-17T12:42:07.513Z,6.50
2023-05-17T12:44:35.981Z,6.60
2023-05-17T12:47:04.166Z,6.50
2023-05-17T12:49:31.726Z,6.50
2023-05-17T12:52:05.663Z,6.60
2023-05-17T12:54:34.306Z,6.70
2023-05-17T12:57:14.202Z,6.80
2023-05-17T12:59:54.596Z,6.80
2023-05-17T13:02:24.120Z,6.80
2023-05-17T13:04:51.962Z,6.80
2023-05-17T13:07:26.049Z,6.90
2023-05-17T13:09:53.557Z,6.80
2023-05-17T13:12:25.303Z,6.60
2023-05-17T13:14:56.784Z,6.70
2023-05-17T13:17:35.794Z,6.80
2023-05-17T13:20:05.312Z,6.80
2023-05-17T13:22:34.264Z,7.00
2023-05-17T13:25:03.941Z,7.10
2023-05-17T13:27:31.553Z,7.10
2023-05-17T13:29:58.957Z,7.20
2023-05-17T13:32:27.011Z,7.00
2023-05-17T13:34:57.533Z,7.20
2023-05-17T13:37:25.029Z,7.30
2023-05-17T13:39:54.966Z,7.30
2023-05-17T13:42:23.505Z,7.40
2023-05-17T13:44:51.053Z,7.40
2023-05-17T13:47:18.595Z,7.10
2023-05-17T13:49:46.134Z,7.10
2023-05-17T13:52:14.041Z,7.20
2023-05-17T13:54:41.569Z,7.20
2023-05-17T13:57:09.105Z,7.30
2023-05-17T13:59:36.665Z,7.30
2023-05-17T14:02:04.761Z,7.30
2023-05-17T14:04:34.999Z,7.40
2023-05-17T14:07:06.230Z,7.60
2023-05-17T14:09:34.932Z,7.70
2023-05-17T14:12:03.166Z,7.50
2023-05-17T14:14:31.212Z,7.80
2023-05-17T14:16:58.739Z,7.90
2023-05-17T14:19:26.390Z,7.60
2023-05-17T14:21:54.104Z,7.60
2023-05-17T14:24:21.706Z,7.50
2023-05-17T14:26:49.168Z,7.30
2023-05-17T14:29:17.107Z,7.10
2023-05-17T14:31:44.572Z,6.90
2023-05-17T14:34:12.140Z,7.00
2023-05-17T14:36:39.717Z,7.00
2023-05-17T14:39:07.158Z,6.90
2023-05-17T14:41:34.510Z,6.90
2023-05-17T14:44:02.085Z,6.80
2023-05-17T14:46:29.609Z,6.80
2023-05-17T14:48:57.153Z,6.80
2023-05-17T14:51:25.279Z,6.90
2023-05-17T14:53:53.211Z,6.80
2023-05-17T14:56:23.965Z,7.00
2023-05-17T14:58:51.631Z,6.90
2023-05-17T15:01:19.340Z,7.00
2023-05-17T15:03:47.227Z,7.10
2023-05-17T15:06:14.849Z,7.20
2023-05-17T15:08:42.382Z,7.10
2023-05-17T15:11:10.160Z,7.10
2023-05-17T15:13:38.456Z,7.10
2023-05-17T15:16:06.504Z,7.00
2023-05-17T15:18:33.935Z,7.00
2023-05-17T15:21:03.101Z,7.10
2023-05-17T15:23:30.562Z,7.00
2023-05-17T15:25:58.105Z,7.10
2023-05-17T15:28:25.693Z,7.20
2023-05-17T15:31:03.481Z,7.20
2023-05-17T15:33:32.431Z,7.10
2023-05-17T15:35:59.951Z,6.90
2023-05-17T15:38:27.491Z,7.10
2023-05-17T15:41:04.344Z,7.10
2023-05-17T15:43:33.129Z,7.10
2023-05-17T15:46:01.155Z,7.10
2023-05-17T15:48:33.440Z,7.10
2023-05-17T15:51:02.025Z,7.10
2023-05-17T15:53:30.216Z,7.20
2023-05-17T15:55:57.737Z,7.20
2023-05-17T15:58:33.295Z,7.40
2023-05-17T16:01:04.982Z,7.70
2023-05-17T16:03:33.474Z,7.80
2023-05-17T16:06:01.312Z,7.90
2023-05-17T16:08:31.745Z,8.00
2023-05-17T16:11:01.441Z,8.00
2023-05-17T16:13:29.863Z,7.90
2023-05-17T16:15:58.394Z,7.70
2023-05-17T16:18:26.431Z,7.70
2023-05-17T16:21:02.993Z,7.70
2023-05-17T16:23:30.524Z,7.80
2023-05-17T16:25:58.276Z,7.90
2023-05-17T16:28:25.978Z,8.20
2023-05-17T16:30:53.562Z,8.20
2023-05-17T16:33:21.613Z,8.50
2023-05-17T16:35:49.839Z,8.40
2023-05-17T16:38:17.451Z,8.30
2023-05-17T16:40:45.192Z,8.20
2023-05-17T16:43:17.180Z,8.10
2023-05-17T16:45:45.342Z,8.10
2023-05-17T16:48:15.484Z,8.10
2023-05-17T16:50:43.303Z,8.00
2023-05-17T16:53:10.985Z,8.10
2023-05-17T16:55:38.463Z,8.00
2023-05-17T16:58:09.142Z,7.90
2023-05-17T17:00:36.732Z,7.80
2023-05-17T17:03:07.517Z,7.80
2023-05-17T17:05:37.638Z,7.80
2023-05-17T17:08:05.413Z,7.90
2023-05-17T17:10:33.688Z,7.80
2023-05-17T17:13:01.890Z,7.80
2023-05-17T17:15:29.761Z,7.80
2023-05-17T17:17:57.391Z,7.70
2023-05-17T17:20:25.458Z,7.60
2023-05-17T17:22:53.151Z,7.50
2023-05-17T17:25:24.849Z,7.50
2023-05-17T17:27:53.303Z,7.40
2023-05-17T17:30:21.320Z,7.30
2023-05-17T17:32:48.997Z,7.20
2023-05-17T17:35:17.030Z,7.20
2023-05-17T17:37:44.470Z,7.30
2023-05-17T17:40:13.466Z,7.40
2023-05-17T17:42:41.057Z,7.60
2023-05-17T17:45:09.098Z,7.80
2023-05-17T17:47:36.955Z,8.00
2023-05-17T17:50:04.804Z,8.00
2023-05-17T17:52:32.376Z,7.80
2023-05-17T17:54:59.815Z,7.60
2023-05-17T17:57:27.740Z,7.50
2023-05-17T17:59:55.430Z,7.40
2023-05-17T18:02:22.938Z,7.30
2023-05-17T18:04:50.533Z,7.20
2023-05-17T18:07:18.721Z,7.10
2023-05-17T18:09:46.354Z,7.00
2023-05-17T18:12:13.784Z,7.10
2023-05-17T18:14:41.576Z,7.20
2023-05-17T18:17:09.411Z,7.20
2023-05-17T18:19:36.928Z,7.20
2023-05-17T18:22:04.536Z,7.10
2023-05-17T18:24:32.284Z,7.10
2023-05-17T18:27:00.620Z,7.10
2023-05-17T18:29:28.842Z,7.00
2023-05-17T18:31:56.473Z,6.90
2023-05-17T18:34:25.824Z,6.80
2023-05-17T18:36:53.752Z,6.80
2023-05-17T18:39:21.169Z,6.80
2023-05-17T18:41:48.845Z,6.70
2023-05-17T18:44:18.049Z,6.60
2023-05-17T18:46:49.442Z,6.60
2023-05-17T18:49:18.283Z,6.60
2023-05-17T18:51:46.621Z,6.70
2023-05-17T18:54:14.159Z,6.60
2023-05-17T18:56:44.804Z,6.60
2023-05-17T18:59:14.772Z,6.50
2023-05-17T19:01:44.023Z,6.60
2023-05-17T19:04:12.080Z,6.50
2023-05-17T19:06:42.110Z,6.50
2023-05-17T19:09:10.377Z,6.40
2023-05-17T19:11:37.990Z,6.50
2023-05-17T19:14:06.155Z,6.50
2023-05-17T19:16:33.583Z,6.60
2023-05-17T19:19:04.400Z,6.60
2023-05-17T19:21:32.129Z,6.70
2023-05-17T19:24:00.948Z,6.70
2023-05-17T19:26:28.361Z,6.80
2023-05-17T19:28:55.824Z,6.70
2023-05-17T19:31:23.592Z,6.70
2023-05-17T19:33:51.062Z,6.70
2023-05-17T19:36:18.596Z,6.70
2023-05-17T19:38:46.225Z,6.70
2023-05-17T19:41:13.618Z,6.70
2023-05-17T19:43:43.451Z,6.80
2023-05-17T19:46:11.954Z,6.70
2023-05-17T19:48:40.324Z,6.60
2023-05-17T19:51:07.833Z,6.50
2023-05-17T19:53:50.992Z,6.40
2023-05-17T19:56:19.789Z,6.30
2023-05-17T19:58:47.376Z,6.30
2023-05-17T20:01:14.814Z,6.30
2023-05-17T20:03:42.487Z,6.20
2023-05-17T20:06:14.444Z,6.20
2023-05-17T20:08:42.682Z,6.10
2023-05-17T20:11:11.198Z,6.10
2023-05-17T20:13:41.558Z,6.00
2023-05-17T20:16:13.435Z,6.00
2023-05-17T20:18:43.659Z,5.90
2023-05-17T20:21:12.921Z,5.90
2023-05-17T20:23:40.511Z,5.80
2023-05-17T20:26:08.428Z,5.80
2023-05-17T20:28:35.862Z,5.90
2023-05-17T20:31:06.712Z,5.80
2023-05-17T20:33:34.230Z,5.80
2023-05-17T20:36:01.777Z,5.60
2023-05-17T20:38:29.173Z,5.60
2023-05-17T20:40:58.557Z,5.50
2023-05-17T20:43:29.007Z,5.40
2023-05-17T20:45:56.764Z,5.30
2023-05-17T20:48:24.369Z,5.20
2023-05-17T20:50:51.940Z,5.20
2023-05-17T20:53:19.359Z,5.10
2023-05-17T20:55:46.836Z,5.00
2023-05-17T20:58:14.291Z,5.00
2023-05-17T21:00:42.249Z,4.90
2023-05-17T21:03:11.300Z,4.90
2023-05-17T21:05:38.910Z,4.80
2023-05-17T21:08:13.134Z,4.80
2023-05-17T21:10:43.062Z,4.70
2023-05-17T21:13:12.658Z,4.70
2023-05-17T21:15:40.567Z,4.70
2023-05-17T21:18:10.808Z,4.70
2023-05-17T21:20:38.972Z,4.70
2023-05-17T21:23:06.529Z,4.70
2023-05-17T21:25:35.274Z,4.70
2023-05-17T21:28:02.670Z,4.60
2023-05-17T21:30:30.506Z,4.60
2023-05-17T21:32:58.110Z,4.60
2023-05-17T21:35:25.645Z,4.60
2023-05-17T21:37:53.154Z,4.70
2023-05-17T21:40:20.727Z,4.70
2023-05-17T21:42:49.329Z,4.80
2023-05-17T21:45:16.834Z,4.80
2023-05-17T21:47:47.117Z,4.80
2023-05-17T21:50:14.859Z,4.90
2023-05-17T21:52:42.623Z,4.90
2023-05-17T21:55:11.024Z,4.80
2023-05-17T21:57:41.078Z,4.80
2023-05-17T22:00:13.149Z,4.80
2023-05-17T22:02:43.466Z,4.70
2023-05-17T22:05:11.349Z,4.60
2023-05-17T22:07:39.245Z,4.60
2023-05-17T22:10:09.474Z,4.40
2023-05-17T22:12:38.497Z,4.40
2023-05-17T22:15:08.766Z,4.40
2023-05-17T22:17:47.913Z,4.20
2023-05-17T22:20:19.881Z,4.10
2023-05-17T22:22:47.448Z,4.10
2023-05-17T22:25:15.816Z,4.10
2023-05-17T22:27:46.044Z,4.10
2023-05-17T22:30:15.021Z,3.90
2023-05-17T22:32:42.581Z,3.90
2023-05-17T22:35:10.530Z,3.80
2023-05-17T22:37:38.046Z,3.80
2023-05-17T22:40:08.763Z,3.80
2023-05-17T22:42:36.136Z,3.70
2023-05-17T22:45:03.826Z,3.60
2023-05-17T22:47:32.195Z,3.60
2023-05-17T22:50:00.940Z,3.60
2023-05-17T22:52:28.457Z,3.60
2023-05-17T22:54:55.956Z,3.50
2023-05-17T22:57:23.407Z,3.50
2023-05-17T22:59:50.816Z,3.40
2023-05-17T23:02:18.191Z,3.40
2023-05-17T23:04:46.273Z,3.40
2023-05-17T23:07:15.255Z,3.30
2023-05-17T23:09:42.754Z,3.30
2023-05-17T23:12:14.374Z,3.20
2023-05-17T23:14:41.878Z,3.10
2023-05-17T23:17:10.246Z,3.10
2023-05-17T23:19:37.742Z,3.10
2023-05-17T23:22:06.552Z,3.00
2023-05-17T23:24:39.021Z,2.90
2023-05-17T23:27:10.394Z,2.90
2023-05-17T23:29:37.957Z,2.90
2023-05-17T23:32:05.752Z,2.90
2023-05-17T23:34:33.864Z,2.90
2023-05-17T23:37:01.505Z,2.90
2023-05-17T23:39:28.944Z,2.80
2023-05-17T23:41:56.453Z,2.80
2023-05-17T23:44:24.131Z,2.80
2023-05-17T23:46:54.063Z,2.80
2023-05-17T23:49:23.027Z,2.70
2023-05-17T23:51:50.852Z,2.70
2023-05-17T23:54:18.522Z,2.70
2023-05-17T23:56:46.000Z,2.70
2023-05-17T23:59:13.487Z,2.70
